Time;durP1;ratioP1;P1;durP2;ratioP2;P2;SDS_P1;SDS_P2;PMS_P1;PMS_P2;Temp;Humidity;BMP_temperature;BMP_pressure;BME280_temperature;BME280_humidity;BME280_pressure;Samples;Min_cycle;Max_cycle;Signal;HPM_P1;HPM_P2
2022/10/26 00:01:09;;;;;;;20.42;12.98;;;10.60;99.90;;;;;;6083019;23;20179;-85
2022/10/26 00:03:35;;;;;;;;;;;10.70;99.90;;;;;;6085072;23;20332;-84
2022/10/26 00:06:05;;;;;;;25.05;13.05;;;10.70;99.90;;;;;;6060470;23;19940;-85
2022/10/26 00:08:31;;;;;;;25.02;14.02;;;10.70;99.90;;;;;;6083689;23;20018;-85
2022/10/26 00:10:57;;;;;;;20.52;13.32;;;10.70;99.90;;;;;;6081677;23;20105;-85
2022/10/26 00:13:23;;;;;;;20.05;13.32;;;10.60;99.90;;;;;;6083370;23;20089;-85
2022/10/26 00:15:48;;;;;;;25.80;14.43;;;10.60;99.90;;;;;;6083411;23;20117;-85
2022/10/26 00:18:14;;;;;;;26.65;14.07;;;10.80;99.90;;;;;;6083477;23;20456;-85
2022/10/26 00:20:41;;;;;;;25.75;14.23;;;10.70;99.90;;;;;;6083664;23;20088;-85
2022/10/26 00:23:07;;;;;;;27.27;14.25;;;10.70;99.90;;;;;;6084912;23;20014;-85
2022/10/26 00:25:36;;;;;;;22.60;13.98;;;10.80;99.90;;;;;;6082198;23;20513;-85
2022/10/26 00:28:02;;;;;;;23.75;14.55;;;10.70;99.90;;;;;;6082989;23;20075;-85
2022/10/26 00:30:30;;;;;;;21.80;14.00;;;10.70;99.90;;;;;;6084998;23;20384;-85
2022/10/26 00:32:57;;;;;;;23.88;14.02;;;10.70;99.90;;;;;;6084436;23;20024;-84
2022/10/26 00:35:22;;;;;;;25.55;13.68;;;10.60;99.90;;;;;;6084069;23;20022;-85
2022/10/26 00:37:52;;;;;;;22.10;13.52;;;10.70;99.90;;;;;;6083587;23;20025;-86
2022/10/26 00:40:18;;;;;;;28.45;13.35;;;10.70;99.90;;;;;;6082206;23;20443;-85
2022/10/26 00:42:44;;;;;;;23.83;14.10;;;10.70;99.90;;;;;;6083059;23;20068;-85
2022/10/26 00:45:20;;;;;;;23.95;13.90;;;10.60;99.90;;;;;;6084633;23;20010;-85
2022/10/26 00:48:09;;;;;;;21.23;14.23;;;10.70;99.90;;;;;;6083947;23;20017;-86
2022/10/26 00:50:39;;;;;;;21.70;13.93;;;10.50;99.90;;;;;;6084811;23;20014;-85
2022/10/26 00:53:06;;;;;;;26.02;14.43;;;10.70;99.90;;;;;;6060308;23;20013;-85
2022/10/26 00:55:36;;;;;;;22.30;13.60;;;10.60;99.90;;;;;;6082266;23;20020;-84
2022/10/26 00:58:05;;;;;;;22.00;13.68;;;10.50;99.90;;;;;;6060021;23;20315;-84
2022/10/26 01:00:32;;;;;;;22.58;13.38;;;10.60;99.90;;;;;;6084665;23;20123;-86
2022/10/26 01:03:00;;;;;;;25.02;14.13;;;10.60;99.90;;;;;;6085314;23;20024;-85
2022/10/26 01:05:26;;;;;;;23.35;13.15;;;10.50;99.90;;;;;;6086126;23;20089;-85
2022/10/26 01:07:53;;;;;;;22.30;13.13;;;10.50;99.90;;;;;;6060217;23;20006;-85
2022/10/26 01:10:20;;;;;;;21.83;13.73;;;10.50;99.90;;;;;;6083288;23;20022;-85
2022/10/26 01:12:48;;;;;;;22.65;13.00;;;10.40;99.90;;;;;;6081500;23;20017;-85
2022/10/26 01:15:14;;;;;;;21.83;13.68;;;10.40;99.90;;;;;;6081174;23;20041;-85
2022/10/26 01:18:07;;;;;;;22.58;12.90;;;10.40;99.90;;;;;;6082344;23;20020;-84
2022/10/26 01:20:35;;;;;;;23.13;13.52;;;10.30;99.90;;;;;;6084303;23;20006;-85
2022/10/26 01:23:50;;;;;;;22.05;13.98;;;10.30;99.90;;;;;;6058932;23;20036;-85
2022/10/26 01:26:32;;;;;;;23.33;14.00;;;10.30;99.90;;;;;;6047261;23;20116;-84
2022/10/26 01:29:18;;;;;;;27.98;13.48;;;10.20;99.90;;;;;;6084105;23;20089;-84
2022/10/26 01:31:55;;;;;;;26.65;13.95;;;10.20;99.90;;;;;;6081715;23;20475;-84
2022/10/26 01:34:31;;;;;;;23.20;13.45;;;10.30;99.90;;;;;;6082659;23;20025;-85
2022/10/26 01:37:05;;;;;;;23.33;13.38;;;10.10;99.90;;;;;;6083650;23;20010;-85
2022/10/26 01:39:57;;;;;;;23.00;14.10;;;10.20;99.90;;;;;;6082787;23;20020;-85
2022/10/26 01:42:25;;;;;;;21.67;13.45;;;10.20;99.90;;;;;;6058887;23;20069;-85
2022/10/26 01:45:02;;;;;;;23.15;14.13;;;10.10;99.90;;;;;;6060553;23;20139;-84
2022/10/26 01:47:30;;;;;;;19.30;13.30;;;10.00;99.90;;;;;;6084226;23;20297;-85
2022/10/26 01:49:57;;;;;;;21.83;13.20;;;10.00;99.90;;;;;;6083521;23;20034;-85
2022/10/26 01:52:24;;;;;;;20.38;13.40;;;9.80;99.90;;;;;;6083768;23;20024;-84
2022/10/26 01:54:49;;;;;;;22.83;14.13;;;10.00;99.90;;;;;;6081624;23;20026;-85
2022/10/26 01:57:23;;;;;;;20.88;12.77;;;9.90;99.90;;;;;;6058874;23;20018;-85
2022/10/26 01:59:56;;;;;;;19.83;13.32;;;9.80;99.90;;;;;;6084277;23;20010;-84
2022/10/26 02:02:52;;;;;;;24.42;14.55;;;9.80;99.90;;;;;;6060292;23;20029;-85
2022/10/26 02:05:39;;;;;;;19.70;13.75;;;9.80;99.90;;;;;;6058984;23;20414;-85
2022/10/26 02:08:23;;;;;;;24.88;14.65;;;9.90;99.90;;;;;;6082990;23;20024;-86
2022/10/26 02:11:17;;;;;;;22.67;14.30;;;9.90;99.90;;;;;;6081868;23;20018;-85
2022/10/26 02:13:56;;;;;;;24.75;14.77;;;9.80;99.90;;;;;;6060126;23;20448;-85
2022/10/26 02:16:36;;;;;;;23.92;15.73;;;9.80;99.90;;;;;;6082151;23;20101;-84
2022/10/26 02:19:09;;;;;;;23.05;14.50;;;9.70;99.90;;;;;;6059830;23;20321;-85
2022/10/26 02:21:42;;;;;;;26.05;15.27;;;9.70;99.90;;;;;;6082094;23;20018;-85
2022/10/26 02:24:11;;;;;;;26.23;15.07;;;9.70;99.90;;;;;;6081222;23;20013;-85
2022/10/26 02:26:39;;;;;;;24.63;15.68;;;9.80;99.90;;;;;;6079702;23;20359;-86
2022/10/26 02:29:10;;;;;;;23.33;15.00;;;9.80;99.90;;;;;;6082728;23;20024;-85
2022/10/26 02:31:37;;;;;;;25.08;14.80;;;9.70;99.90;;;;;;6083208;23;20018;-85
2022/10/26 02:34:08;;;;;;;23.92;15.02;;;9.60;99.90;;;;;;6084017;23;20101;-85
2022/10/26 02:36:43;;;;;;;22.70;15.55;;;9.60;99.90;;;;;;6082571;23;20365;-85
2022/10/26 02:39:11;;;;;;;25.27;14.77;;;9.60;99.90;;;;;;6083145;23;20018;-84
2022/10/26 02:41:39;;;;;;;26.02;15.45;;;9.50;99.90;;;;;;6081707;23;20022;-86
2022/10/26 02:44:24;;;;;;;25.45;15.30;;;9.50;99.90;;;;;;6083692;23;20037;-85
2022/10/26 02:46:51;;;;;;;23.45;15.57;;;9.60;99.90;;;;;;6082975;23;20076;-85
2022/10/26 02:49:17;;;;;;;21.48;14.70;;;9.40;99.90;;;;;;6084585;23;20017;-85
2022/10/26 02:51:59;;;;;;;28.55;15.38;;;9.50;99.90;;;;;;6083316;23;20336;-85
2022/10/26 02:54:52;;;;;;;28.58;15.95;;;9.50;99.90;;;;;;6081928;23;20598;-85
2022/10/26 02:57:32;;;;;;;33.35;16.20;;;9.60;99.90;;;;;;6080529;23;20681;-84
2022/10/26 02:59:59;;;;;;;26.63;16.05;;;9.60;99.90;;;;;;6081818;23;20340;-84
2022/10/26 03:02:26;;;;;;;31.27;16.80;;;9.50;99.90;;;;;;6081648;23;20010;-85
2022/10/26 03:04:53;;;;;;;26.10;15.55;;;9.40;99.90;;;;;;6082311;23;20014;-84
2022/10/26 03:07:23;;;;;;;25.40;15.88;;;9.40;99.90;;;;;;6080918;23;20022;-85
2022/10/26 03:09:49;;;;;;;25.70;15.13;;;9.40;99.90;;;;;;6080633;23;20592;-85
2022/10/26 03:12:15;;;;;;;27.48;15.27;;;9.50;99.90;;;;;;6080655;23;20025;-85
2022/10/26 03:14:41;;;;;;;25.05;14.85;;;9.40;99.90;;;;;;6081876;23;20383;-85
2022/10/26 03:17:07;;;;;;;24.70;15.10;;;9.40;99.90;;;;;;6058015;23;20076;-86
2022/10/26 03:19:33;;;;;;;29.35;15.75;;;9.40;99.90;;;;;;6083111;23;20365;-85
2022/10/26 03:22:01;;;;;;;31.33;16.35;;;9.30;99.90;;;;;;6082185;23;20022;-85
2022/10/26 03:24:26;;;;;;;26.77;15.68;;;9.30;99.90;;;;;;6081663;23;20018;-84
2022/10/26 03:26:52;;;;;;;27.92;16.25;;;9.40;99.90;;;;;;6079906;23;20017;-85
2022/10/26 03:29:24;;;;;;;30.27;16.35;;;9.40;99.90;;;;;;6082789;23;20092;-84
2022/10/26 03:31:54;;;;;;;22.58;15.35;;;9.40;99.90;;;;;;6081876;23;20028;-85
2022/10/26 03:34:20;;;;;;;25.77;15.68;;;9.30;99.90;;;;;;6083736;23;20022;-84
2022/10/26 03:36:49;;;;;;;29.00;15.25;;;9.30;99.90;;;;;;6080302;23;20022;-85
2022/10/26 03:39:14;;;;;;;25.67;16.35;;;9.30;99.90;;;;;;6082729;23;20455;-85
2022/10/26 03:41:40;;;;;;;24.35;16.15;;;9.30;99.90;;;;;;6082539;23;20097;-85
2022/10/26 03:44:06;;;;;;;26.55;15.68;;;9.30;99.90;;;;;;6083548;23;20009;-84
2022/10/26 03:46:31;;;;;;;24.52;15.95;;;9.20;99.90;;;;;;6084111;23;20018;-84
2022/10/26 03:48:57;;;;;;;31.77;17.13;;;9.20;99.90;;;;;;6084270;23;20021;-86
2022/10/26 03:51:22;;;;;;;29.17;17.20;;;9.20;99.90;;;;;;6083707;23;20018;-84
2022/10/26 03:53:48;;;;;;;27.45;16.42;;;9.30;99.90;;;;;;6082534;23;20449;-85
2022/10/26 03:56:14;;;;;;;26.65;16.88;;;9.40;99.90;;;;;;6079375;23;20295;-85
2022/10/26 03:58:39;;;;;;;30.10;17.38;;;9.30;99.90;;;;;;6083405;23;20013;-85
2022/10/26 04:01:05;;;;;;;33.10;16.75;;;9.30;99.90;;;;;;6083333;23;20032;-85
2022/10/26 04:03:31;;;;;;;35.40;18.30;;;9.20;99.90;;;;;;6083576;23;20010;-85
2022/10/26 04:06:00;;;;;;;31.17;17.35;;;9.20;99.90;;;;;;6083557;23;20028;-85
2022/10/26 04:08:26;;;;;;;30.55;17.40;;;9.30;99.90;;;;;;6083349;23;20223;-85
2022/10/26 04:10:51;;;;;;;28.15;17.00;;;9.30;99.90;;;;;;6081190;23;20331;-85
2022/10/26 04:13:17;;;;;;;31.17;17.98;;;9.20;99.90;;;;;;6083898;23;20029;-85
2022/10/26 04:15:43;;;;;;;34.90;18.17;;;9.30;99.90;;;;;;6083171;23;20479;-85
2022/10/26 04:18:11;;;;;;;33.45;18.25;;;9.30;99.90;;;;;;6084210;23;20014;-85
2022/10/26 04:20:38;;;;;;;30.20;18.10;;;9.20;99.90;;;;;;6084111;23;20021;-85
2022/10/26 04:23:05;;;;;;;35.50;18.52;;;9.10;99.90;;;;;;6084363;23;20045;-84
2022/10/26 04:25:32;;;;;;;32.30;17.40;;;9.10;99.90;;;;;;6081789;23;20014;-85
2022/10/26 04:27:58;;;;;;;32.50;18.52;;;9.20;99.90;;;;;;6082248;23;20018;-85
2022/10/26 04:30:24;;;;;;;32.58;19.17;;;9.10;99.90;;;;;;6083298;23;20116;-85
2022/10/26 04:32:50;;;;;;;33.20;19.92;;;9.20;99.90;;;;;;6083448;23;20018;-85
2022/10/26 04:35:16;;;;;;;30.80;18.50;;;9.20;99.90;;;;;;6083261;23;20018;-85
2022/10/26 04:37:42;;;;;;;30.75;18.48;;;9.30;99.90;;;;;;6082320;23;20021;-86
2022/10/26 04:40:08;;;;;;;35.13;19.75;;;9.20;99.90;;;;;;6082909;23;20113;-85
2022/10/26 04:42:45;;;;;;;31.58;19.42;;;9.30;99.90;;;;;;6081957;23;20014;-85
2022/10/26 04:45:12;;;;;;;34.22;19.70;;;9.30;99.90;;;;;;6084742;23;20125;-85
2022/10/26 04:47:37;;;;;;;37.08;19.75;;;9.40;99.90;;;;;;6084258;23;20028;-85
2022/10/26 04:50:04;;;;;;;34.20;20.98;;;9.40;99.90;;;;;;6084671;23;20010;-85
2022/10/26 04:52:33;;;;;;;41.92;21.17;;;9.40;99.90;;;;;;6083014;23;20351;-85
2022/10/26 04:54:59;;;;;;;36.83;20.45;;;9.40;99.90;;;;;;6081011;23;20044;-84
2022/10/26 04:57:25;;;;;;;39.58;22.20;;;9.60;99.90;;;;;;6081450;23;20014;-85
2022/10/26 04:59:50;;;;;;;33.75;20.65;;;9.60;99.90;;;;;;6082633;23;20025;-85
2022/10/26 05:02:16;;;;;;;42.13;21.83;;;9.60;99.90;;;;;;6058763;23;20018;-85
2022/10/26 05:04:42;;;;;;;36.92;21.60;;;9.60;99.90;;;;;;6083026;23;20102;-85
2022/10/26 05:07:07;;;;;;;34.42;21.27;;;9.60;99.90;;;;;;6082230;23;20295;-85
2022/10/26 05:09:36;;;;;;;36.85;21.35;;;9.70;99.90;;;;;;6082540;23;20017;-85
2022/10/26 05:12:02;;;;;;;38.83;21.60;;;9.80;99.90;;;;;;6081092;23;20049;-85
2022/10/26 05:14:28;;;;;;;37.50;20.98;;;9.70;99.90;;;;;;6059996;23;20166;-84
2022/10/26 05:16:54;;;;;;;36.47;20.77;;;9.80;99.90;;;;;;6082923;23;20493;-84
2022/10/26 05:19:20;;;;;;;36.80;21.08;;;9.90;99.90;;;;;;6083505;23;20025;-85
2022/10/26 05:21:46;;;;;;;39.00;21.90;;;9.90;99.90;;;;;;6083398;23;20018;-85
2022/10/26 05:24:11;;;;;;;36.58;21.77;;;10.00;99.90;;;;;;6057946;23;20096;-85
2022/10/26 05:26:40;;;;;;;39.85;22.63;;;10.00;99.90;;;;;;6081475;23;20092;-85
2022/10/26 05:29:09;;;;;;;38.30;21.50;;;10.00;99.90;;;;;;6083957;23;20060;-85
2022/10/26 05:31:35;;;;;;;38.13;20.42;;;10.10;99.90;;;;;;6083702;23;20018;-85
2022/10/26 05:34:00;;;;;;;42.28;20.42;;;10.20;99.90;;;;;;6084574;23;20033;-85
2022/10/26 05:36:26;;;;;;;36.97;21.35;;;10.20;99.90;;;;;;6082786;23;20014;-84
2022/10/26 05:39:00;;;;;;;36.60;21.92;;;10.20;99.90;;;;;;6082933;23;20312;-85
2022/10/26 05:41:28;;;;;;;37.33;22.35;;;10.30;99.90;;;;;;6080640;23;20422;-85
2022/10/26 05:43:54;;;;;;;36.17;20.75;;;10.40;99.90;;;;;;6083476;23;20049;-84
2022/10/26 05:46:20;;;;;;;36.22;20.60;;;10.40;99.90;;;;;;6081515;23;20481;-85
2022/10/26 05:48:48;;;;;;;33.53;20.20;;;10.30;99.90;;;;;;6082800;23;20018;-85
2022/10/26 05:51:15;;;;;;;33.20;20.33;;;10.40;99.90;;;;;;6082982;23;20018;-85
2022/10/26 05:53:47;;;;;;;36.53;20.63;;;10.50;99.90;;;;;;6081662;23;20295;-85
2022/10/26 05:56:32;;;;;;;33.65;19.83;;;10.50;99.90;;;;;;6080085;23;20053;-85
2022/10/26 05:58:58;;;;;;;35.58;20.00;;;10.60;99.90;;;;;;6083455;23;20295;-86
2022/10/26 06:01:39;;;;;;;29.60;18.90;;;10.50;99.90;;;;;;6081662;23;20530;-85
2022/10/26 06:04:30;;;;;;;33.33;19.08;;;10.60;99.90;;;;;;6059998;23;20020;-85
2022/10/26 06:06:57;;;;;;;35.53;18.80;;;10.70;99.90;;;;;;6058364;23;20018;-84
2022/10/26 06:09:23;;;;;;;32.33;18.70;;;10.60;99.90;;;;;;6081697;23;20096;-85
2022/10/26 06:11:49;;;;;;;30.70;17.60;;;10.60;99.90;;;;;;6082017;23;20052;-84
2022/10/26 06:14:15;;;;;;;30.27;17.60;;;10.60;99.90;;;;;;6083921;23;20021;-85
2022/10/26 06:17:04;;;;;;;30.20;17.40;;;10.60;99.90;;;;;;6083277;23;20024;-85
2022/10/26 06:19:38;;;;;;;25.55;16.88;;;10.70;99.90;;;;;;6083565;23;20105;-85
2022/10/26 06:22:23;;;;;;;29.17;17.63;;;10.60;99.90;;;;;;6059726;23;20101;-84
2022/10/26 06:24:59;;;;;;;36.03;17.00;;;10.70;99.90;;;;;;6080726;23;20021;-85
2022/10/26 06:27:49;;;;;;;32.00;17.65;;;10.80;99.90;;;;;;6080879;23;20224;-85
2022/10/26 06:30:15;;;;;;;27.40;17.67;;;10.80;99.90;;;;;;6084090;23;20572;-85
2022/10/26 06:32:46;;;;;;;25.95;15.80;;;10.80;99.90;;;;;;6083578;23;20097;-85
2022/10/26 06:35:50;;;;;;;26.20;16.55;;;10.80;99.90;;;;;;6083590;23;20052;-86
2022/10/26 06:38:18;;;;;;;31.25;17.40;;;10.90;99.90;;;;;;6062900;23;20470;-85
2022/10/26 06:40:50;;;;;;;29.17;17.50;;;10.80;99.90;;;;;;6080331;23;20092;-85
2022/10/26 06:43:30;;;;;;;26.77;16.45;;;10.90;99.90;;;;;;6083503;23;20088;-84
2022/10/26 06:46:25;;;;;;;28.55;17.20;;;10.80;99.90;;;;;;6082910;23;20057;-86
2022/10/26 06:48:59;;;;;;;24.50;16.42;;;10.80;99.90;;;;;;6059321;23;20179;-85
2022/10/26 06:51:28;;;;;;;26.33;16.77;;;11.00;99.90;;;;;;6059735;23;20494;-85
2022/10/26 06:54:07;;;;;;;26.50;16.08;;;10.90;99.90;;;;;;6081455;23;20106;-85
2022/10/26 06:56:33;;;;;;;22.83;14.75;;;11.00;99.90;;;;;;6080876;23;20336;-85
2022/10/26 06:59:36;;;;;;;22.35;13.95;;;11.00;99.90;;;;;;6082833;23;20105;-85
2022/10/26 07:02:02;;;;;;;21.58;14.02;;;11.00;99.90;;;;;;6081124;23;20066;-84
2022/10/26 07:04:27;;;;;;;23.52;13.63;;;11.00;99.90;;;;;;6083296;23;20131;-85
2022/10/26 07:06:55;;;;;;;22.48;13.88;;;11.10;99.90;;;;;;6081133;23;20045;-85
2022/10/26 07:09:22;;;;;;;21.08;12.73;;;11.10;99.90;;;;;;6080838;23;20026;-85
2022/10/26 07:11:47;;;;;;;21.15;13.05;;;11.20;99.90;;;;;;6080944;23;20101;-84
2022/10/26 07:14:13;;;;;;;21.60;12.65;;;11.30;99.90;;;;;;6083695;23;20462;-85
2022/10/26 07:16:39;;;;;;;18.35;12.45;;;11.30;99.90;;;;;;6082874;23;20033;-85
2022/10/26 07:19:04;;;;;;;27.48;12.88;;;11.30;99.90;;;;;;6082159;23;20093;-85
2022/10/26 07:21:30;;;;;;;17.48;12.13;;;11.50;99.90;;;;;;6083021;23;20026;-85
2022/10/26 07:23:56;;;;;;;21.15;11.63;;;11.50;99.90;;;;;;6081939;23;20014;-85
2022/10/26 07:26:26;;;;;;;21.63;11.75;;;11.40;99.90;;;;;;6080656;23;20080;-86
2022/10/26 07:28:54;;;;;;;17.95;11.88;;;11.60;99.90;;;;;;6083814;23;20105;-85
2022/10/26 07:31:22;;;;;;;19.20;11.93;;;11.70;99.90;;;;;;6082356;23;20118;-85
2022/10/26 07:33:48;;;;;;;21.20;11.57;;;11.70;99.90;;;;;;6083855;23;20021;-85
2022/10/26 07:36:19;;;;;;;17.20;11.02;;;11.70;99.90;;;;;;6082080;23;20014;-85
2022/10/26 07:38:54;;;;;;;16.15;11.65;;;11.80;99.90;;;;;;6058857;23;20034;-84
2022/10/26 07:41:20;;;;;;;20.33;11.13;;;11.80;99.90;;;;;;6080465;23;20357;-85
2022/10/26 07:43:46;;;;;;;15.13;9.90;;;11.90;99.90;;;;;;6083029;23;20014;-85
2022/10/26 07:46:12;;;;;;;15.13;11.07;;;12.00;99.90;;;;;;6059679;23;20018;-85
2022/10/26 07:48:38;;;;;;;15.80;10.35;;;12.00;99.90;;;;;;6082502;23;20485;-85
2022/10/26 07:51:04;;;;;;;14.43;9.00;;;12.10;99.90;;;;;;6083520;23;20014;-85
2022/10/26 07:53:32;;;;;;;15.07;9.70;;;12.20;99.90;;;;;;6083170;23;20018;-85
2022/10/26 07:56:01;;;;;;;14.68;9.60;;;12.10;99.90;;;;;;6055280;23;20156;-85
2022/10/26 07:58:27;;;;;;;12.40;8.60;;;12.10;99.90;;;;;;6082564;23;20018;-85
2022/10/26 08:00:53;;;;;;;17.05;8.10;;;12.40;99.90;;;;;;6059591;23;20006;-85
2022/10/26 08:03:19;;;;;;;13.45;8.75;;;12.30;99.90;;;;;;6059062;23;20148;-85
2022/10/26 08:05:46;;;;;;;17.02;8.95;;;12.40;99.90;;;;;;6058655;23;20010;-84
2022/10/26 08:08:18;;;;;;;13.23;8.48;;;12.60;99.90;;;;;;6059902;23;20075;-85
2022/10/26 08:10:45;;;;;;;13.02;8.48;;;12.60;99.90;;;;;;6057058;23;20013;-85
2022/10/26 08:13:11;;;;;;;14.20;7.63;;;12.80;99.90;;;;;;6058101;23;20018;-85
2022/10/26 08:15:40;;;;;;;13.45;8.00;;;12.90;99.90;;;;;;6058890;23;20021;-85
2022/10/26 08:18:09;;;;;;;10.35;7.20;;;13.00;99.90;;;;;;6058607;23;20368;-85
2022/10/26 08:20:34;;;;;;;11.40;6.80;;;13.10;99.90;;;;;;6059107;23;20128;-84
2022/10/26 08:23:03;;;;;;;10.98;7.13;;;13.00;99.90;;;;;;6058495;23;20045;-85
2022/10/26 08:25:29;;;;;;;14.68;6.80;;;13.00;99.90;;;;;;6081748;23;20096;-85
2022/10/26 08:27:59;;;;;;;11.68;6.72;;;13.30;99.90;;;;;;6060618;23;20014;-85
2022/10/26 08:30:25;;;;;;;9.48;5.90;;;13.40;99.90;;;;;;6061845;23;20335;-85
2022/10/26 08:33:00;;;;;;;10.00;5.97;;;13.30;99.90;;;;;;6059432;23;20018;-85
2022/10/26 08:35:26;;;;;;;8.35;5.85;;;13.30;99.90;;;;;;6059665;23;20049;-85
2022/10/26 08:37:53;;;;;;;12.73;6.47;;;13.40;99.90;;;;;;6059212;23;20021;-84
2022/10/26 08:40:25;;;;;;;9.05;5.72;;;13.40;99.90;;;;;;6082486;23;20036;-85
2022/10/26 08:43:08;;;;;;;9.55;5.85;;;13.50;99.90;;;;;;6082664;23;20222;-84
2022/10/26 08:45:48;;;;;;;8.65;6.22;;;13.60;99.90;;;;;;6083540;23;20037;-85
2022/10/26 08:48:20;;;;;;;8.52;5.93;;;13.60;99.90;;;;;;6059520;23;20048;-85
2022/10/26 08:50:55;;;;;;;12.93;5.63;;;13.60;99.90;;;;;;6060603;23;20014;-85
2022/10/26 08:53:25;;;;;;;7.75;5.60;;;13.80;99.90;;;;;;6058888;23;20159;-84
2022/10/26 08:56:14;;;;;;;9.98;5.13;;;13.80;99.90;;;;;;6081284;23;20443;-85
2022/10/26 08:58:45;;;;;;;7.85;5.38;;;13.90;99.90;;;;;;6085331;23;20014;-85
2022/10/26 09:01:11;;;;;;;7.95;5.25;;;14.00;99.90;;;;;;6060511;23;20100;-86
2022/10/26 09:03:36;;;;;;;9.35;5.20;;;14.20;99.90;;;;;;6084784;23;20526;-85
2022/10/26 09:06:19;;;;;;;8.27;4.85;;;14.20;99.90;;;;;;6060806;23;20096;-84
2022/10/26 09:09:09;;;;;;;8.07;5.10;;;14.30;99.90;;;;;;6060071;23;20025;-84
2022/10/26 09:12:15;;;;;;;7.07;5.10;;;14.30;99.90;;;;;;6082992;23;20085;-85
2022/10/26 09:14:59;;;;;;;8.80;4.85;;;14.30;99.90;;;;;;6059670;23;20014;-85
2022/10/26 09:17:36;;;;;;;6.78;4.85;;;14.30;99.90;;;;;;6084386;23;20028;-85
2022/10/26 09:20:13;;;;;;;7.70;4.90;;;14.40;99.90;;;;;;6084374;23;20014;-85
2022/10/26 09:22:51;;;;;;;9.50;4.90;;;14.30;99.90;;;;;;6083767;23;20096;-85
2022/10/26 09:25:20;;;;;;;8.15;4.82;;;14.50;99.90;;;;;;6080557;23;20028;-85
2022/10/26 09:27:58;;;;;;;8.57;5.07;;;14.60;99.90;;;;;;6081664;23;20100;-84
2022/10/26 09:30:24;;;;;;;14.20;5.05;;;14.70;99.90;;;;;;6059152;23;20057;-85
2022/10/26 09:33:00;;;;;;;12.05;4.32;;;14.80;99.90;;;;;;6060144;23;20114;-85
2022/10/26 09:35:44;;;;;;;8.23;4.00;;;14.80;99.90;;;;;;6058485;23;20064;-85
2022/10/26 09:38:32;;;;;;;6.88;4.15;;;14.90;99.90;;;;;;6060172;23;20323;-86
2022/10/26 09:41:19;;;;;;;7.60;4.45;;;15.00;99.90;;;;;;6057635;23;20452;-85
2022/10/26 09:44:04;;;;;;;8.93;3.78;;;15.10;99.90;;;;;;6083727;23;20117;-85
2022/10/26 09:46:33;;;;;;;8.30;3.90;;;15.20;99.90;;;;;;6083622;23;20101;-85
2022/10/26 09:49:05;;;;;;;5.60;3.88;;;15.30;99.90;;;;;;6061565;23;20026;-84
2022/10/26 09:51:36;;;;;;;7.22;3.80;;;15.40;99.90;;;;;;6060034;23;20105;-84
2022/10/26 09:54:11;;;;;;;6.95;4.15;;;15.50;99.90;;;;;;6058791;23;20100;-85
2022/10/26 09:56:38;;;;;;;11.00;4.25;;;15.70;99.90;;;;;;6058744;23;20018;-86
2022/10/26 09:59:05;;;;;;;8.02;3.75;;;15.60;99.90;;;;;;6084779;23;20064;-85
2022/10/26 10:01:34;;;;;;;7.45;3.78;;;15.50;99.90;;;;;;6060215;23;20042;-85
2022/10/26 10:04:11;;;;;;;6.40;4.00;;;15.60;99.90;;;;;;6060245;23;20356;-85
2022/10/26 10:06:41;;;;;;;6.53;3.70;;;15.70;99.90;;;;;;6083436;23;20014;-85
2022/10/26 10:09:18;;;;;;;5.60;3.53;;;15.90;99.90;;;;;;6083880;23;20620;-84
2022/10/26 10:12:00;;;;;;;7.43;3.70;;;15.90;99.90;;;;;;6083136;23;20037;-85
2022/10/26 10:14:29;;;;;;;7.97;3.90;;;15.90;99.90;;;;;;6060060;23;20021;-85
2022/10/26 10:17:01;;;;;;;6.63;3.60;;;15.90;99.90;;;;;;6059017;23;20326;-85
2022/10/26 10:19:28;;;;;;;9.82;3.67;;;16.00;99.90;;;;;;6059957;23;20069;-85
2022/10/26 10:21:57;;;;;;;6.97;3.55;;;16.10;99.90;;;;;;6059043;23;20160;-84
2022/10/26 10:24:31;;;;;;;6.38;3.20;;;16.20;99.90;;;;;;6059591;23;20081;-83
2022/10/26 10:27:04;;;;;;;7.38;2.90;;;16.40;99.90;;;;;;6056728;23;20018;-85
2022/10/26 10:29:40;;;;;;;5.00;3.08;;;16.40;99.90;;;;;;6082748;23;20018;-85
2022/10/26 10:32:13;;;;;;;5.22;3.28;;;16.60;99.90;;;;;;6059033;23;20072;-84
2022/10/26 10:34:38;;;;;;;5.32;3.45;;;16.70;99.90;;;;;;6059681;23;20053;-85
2022/10/26 10:37:04;;;;;;;6.60;3.50;;;16.60;99.90;;;;;;6084509;23;20041;-84
2022/10/26 10:39:41;;;;;;;5.18;3.05;;;16.70;99.90;;;;;;6082602;23;20064;-83
2022/10/26 10:42:20;;;;;;;9.00;3.38;;;16.80;99.90;;;;;;6057723;23;20014;-83
2022/10/26 10:44:51;;;;;;;4.78;3.35;;;16.90;99.90;;;;;;6058738;23;20371;-84
2022/10/26 10:47:26;;;;;;;6.03;3.55;;;17.00;99.90;;;;;;6059475;23;20403;-84
2022/10/26 10:49:57;;;;;;;;;;;17.10;99.90;;;;;;6060625;23;20073;-85
2022/10/26 10:52:29;;;;;;;6.15;2.95;;;17.10;99.90;;;;;;6082985;23;19991;-85
2022/10/26 10:55:12;;;;;;;7.07;3.13;;;17.30;99.90;;;;;;6057209;23;20422;-84
2022/10/26 10:58:15;;;;;;;5.13;3.28;;;17.30;99.90;;;;;;6083081;23;20939;-85
2022/10/26 11:00:43;;;;;;;7.18;3.00;;;17.40;99.90;;;;;;6083810;23;20013;-84
2022/10/26 11:03:33;;;;;;;6.05;3.35;;;17.50;99.90;;;;;;6059152;23;20018;-84
2022/10/26 11:06:27;;;;;;;5.57;2.88;;;17.40;99.90;;;;;;6082903;23;20134;-84
2022/10/26 11:09:12;;;;;;;9.23;3.40;;;17.60;99.90;;;;;;6081634;23;20022;-84
2022/10/26 11:11:53;;;;;;;6.75;3.78;;;17.60;99.90;;;;;;6056402;23;20014;-85
2022/10/26 11:14:31;;;;;;;7.13;3.40;;;17.70;99.90;;;;;;6059437;23;20014;-85
2022/10/26 11:17:10;;;;;;;5.90;3.40;;;17.70;99.90;;;;;;6057998;23;20064;-84
2022/10/26 11:20:10;;;;;;;6.00;3.28;;;17.80;99.90;;;;;;6082490;23;20036;-85
2022/10/26 11:22:43;;;;;;;7.90;3.50;;;17.90;99.90;;;;;;6058933;23;20018;-84
2022/10/26 11:25:21;;;;;;;6.95;3.03;;;18.10;99.90;;;;;;6056752;23;20348;-84
2022/10/26 11:27:56;;;;;;;5.68;3.03;;;18.20;99.90;;;;;;6056775;23;20018;-84
2022/10/26 11:30:25;;;;;;;7.78;3.00;;;18.10;99.90;;;;;;6082732;23;20057;-85
2022/10/26 11:32:58;;;;;;;7.85;3.20;;;18.20;99.90;;;;;;6058359;23;20025;-84
2022/10/26 11:36:00;;;;;;;4.38;2.63;;;18.20;99.90;;;;;;6083911;23;20100;-84
2022/10/26 11:38:34;;;;;;;5.65;2.75;;;18.20;99.90;;;;;;5985717;23;20021;-84
2022/10/26 11:41:17;;;;;;;6.13;3.03;;;18.30;99.90;;;;;;6080618;23;20018;-85
2022/10/26 11:44:00;;;;;;;5.47;2.70;;;18.30;99.90;;;;;;6084507;23;20014;-84
2022/10/26 11:46:34;;;;;;;4.93;2.92;;;18.20;99.90;;;;;;6059123;23;20022;-84
2022/10/26 11:49:41;;;;;;;6.45;3.20;;;18.40;99.90;;;;;;6060197;23;20395;-84
2022/10/26 11:52:25;;;;;;;4.07;2.90;;;18.30;99.90;;;;;;6059690;23;20018;-85
2022/10/26 11:55:05;;;;;;;5.90;3.55;;;18.40;99.90;;;;;;6057936;23;20056;-85
2022/10/26 11:57:36;;;;;;;6.18;3.30;;;18.60;99.90;;;;;;6058185;23;20022;-84
2022/10/26 12:00:14;;;;;;;7.10;3.00;;;18.60;99.90;;;;;;6085206;23;20017;-85
2022/10/26 12:02:41;;;;;;;4.65;2.88;;;18.70;99.90;;;;;;6084151;23;20036;-84
2022/10/26 12:05:23;;;;;;;5.50;3.08;;;18.80;99.90;;;;;;6061611;23;20425;-84
2022/10/26 12:08:12;;;;;;;8.02;3.40;;;19.10;99.90;;;;;;6061393;23;20017;-84
2022/10/26 12:10:42;;;;;;;5.30;3.10;;;19.00;99.90;;;;;;6058146;23;20018;-84
2022/10/26 12:13:36;;;;;;;8.35;3.35;;;19.10;99.90;;;;;;6083735;23;20056;-85
2022/10/26 12:16:33;;;;;;;10.93;3.22;;;19.10;99.90;;;;;;6082936;23;20686;-84
2022/10/26 12:19:05;;;;;;;5.55;2.85;;;18.90;99.90;;;;;;6084165;23;20017;-84
2022/10/26 12:21:31;;;;;;;5.25;2.55;;;19.10;99.90;;;;;;6060081;23;20044;-84
2022/10/26 12:24:24;;;;;;;7.10;2.65;;;19.00;99.90;;;;;;6059193;23;20195;-84
2022/10/26 12:27:01;;;;;;;5.32;2.90;;;19.20;99.90;;;;;;6068326;23;20014;-85
2022/10/26 12:29:52;;;;;;;9.35;3.13;;;18.90;99.90;;;;;;6060568;23;20022;-85
2022/10/26 12:32:27;;;;;;;5.90;2.97;;;19.20;99.90;;;;;;6060462;23;20100;-85
2022/10/26 12:34:53;;;;;;;4.93;2.63;;;19.30;99.90;;;;;;6084214;23;20040;-83
2022/10/26 12:37:37;;;;;;;6.40;2.90;;;19.40;99.90;;;;;;6083957;23;20285;-84
2022/10/26 12:40:37;;;;;;;6.45;2.72;;;19.50;99.90;;;;;;6083102;23;20452;-84
2022/10/26 12:43:14;;;;;;;4.78;3.10;;;19.50;99.90;;;;;;6083986;23;20014;-84
2022/10/26 12:45:42;;;;;;;8.10;2.90;;;19.20;99.90;;;;;;6084181;23;20010;-84
2022/10/26 12:48:40;;;;;;;7.07;3.05;;;19.10;99.90;;;;;;6084386;23;20045;-84
2022/10/26 12:51:21;;;;;;;9.18;3.67;;;19.10;99.90;;;;;;6084231;23;20021;-85
2022/10/26 12:53:56;;;;;;;6.30;3.08;;;19.00;99.90;;;;;;6084778;23;20438;-84
2022/10/26 12:56:30;;;;;;;4.97;3.42;;;18.80;99.90;;;;;;6081621;23;20400;-85
2022/10/26 12:59:13;;;;;;;6.30;2.65;;;18.90;99.90;;;;;;6061630;23;20040;-84
2022/10/26 13:01:44;;;;;;;7.97;3.50;;;19.10;99.90;;;;;;6085441;23;20228;-85
2022/10/26 13:04:31;;;;;;;6.97;3.05;;;19.40;99.90;;;;;;6085689;23;20014;-83
2022/10/26 13:07:13;;;;;;;7.18;3.35;;;19.50;99.90;;;;;;6058759;23;20022;-85